createdAt,value
2023-01-13T00:01:17.949Z,15.57
2023-01-13T00:04:04.947Z,19.48
2023-01-13T00:06:50.432Z,18.73
2023-01-13T00:09:36.119Z,22.63
2023-01-13T00:12:21.832Z,21.73
2023-01-13T00:15:10.432Z,18.17
2023-01-13T00:17:55.740Z,15.43
2023-01-13T00:20:41.517Z,19.58
2023-01-13T00:23:28.892Z,20.95
2023-01-13T00:26:17.038Z,17.55
2023-01-13T00:29:03.229Z,18.83
2023-01-13T00:31:50.801Z,28.75
2023-01-13T00:34:36.495Z,25.95
2023-01-13T00:37:22.479Z,23.05
2023-01-13T00:40:09.592Z,20.63
2023-01-13T00:43:14.312Z,32.40
2023-01-13T00:46:00.688Z,20.05
2023-01-13T00:48:48.787Z,22.73
2023-01-13T00:51:34.928Z,20.45
2023-01-13T00:54:20.511Z,26.02
2023-01-13T00:57:06.519Z,19.95
2023-01-13T00:59:52.134Z,18.52
2023-01-13T01:02:37.641Z,24.40
2023-01-13T01:05:24.659Z,32.40
2023-01-13T01:08:10.496Z,20.60
2023-01-13T01:11:01.901Z,13.68
2023-01-13T01:13:48.310Z,26.77
2023-01-13T01:16:34.653Z,21.23
2023-01-13T01:19:20.273Z,22.92
2023-01-13T01:22:07.295Z,21.15
2023-01-13T01:24:53.091Z,22.63
2023-01-13T01:27:38.750Z,17.27
2023-01-13T01:30:24.581Z,25.65
2023-01-13T01:33:10.499Z,21.35
2023-01-13T01:35:56.228Z,31.35
2023-01-13T01:38:43.861Z,28.52
2023-01-13T01:41:33.113Z,25.15
2023-01-13T01:44:52.358Z,32.97
2023-01-13T01:47:37.917Z,30.45
2023-01-13T01:50:24.385Z,26.45
2023-01-13T01:53:14.624Z,26.15
2023-01-13T01:56:02.584Z,26.35
2023-01-13T01:58:51.126Z,22.73
2023-01-13T02:01:38.362Z,27.80
2023-01-13T02:04:27.999Z,31.90
2023-01-13T02:07:13.422Z,29.98
2023-01-13T02:10:05.479Z,24.60
2023-01-13T02:12:53.932Z,23.02
2023-01-13T02:15:47.482Z,26.35
2023-01-13T02:18:56.236Z,23.40
2023-01-13T02:22:20.627Z,30.10
2023-01-13T02:25:35.990Z,28.92
2023-01-13T02:29:06.072Z,36.08
2023-01-13T02:31:59.083Z,28.13
2023-01-13T02:34:54.271Z,22.80
2023-01-13T02:37:44.012Z,35.45
2023-01-13T02:40:37.011Z,20.42
2023-01-13T02:43:45.906Z,22.17
2023-01-13T02:46:35.976Z,20.30
2023-01-13T02:49:29.549Z,27.98
2023-01-13T02:52:20.760Z,21.38
2023-01-13T02:55:11.333Z,23.17
2023-01-13T02:57:59.583Z,25.25
2023-01-13T03:00:46.053Z,21.58
2023-01-13T03:03:31.874Z,23.15
2023-01-13T03:06:36.831Z,27.80
2023-01-13T03:09:29.835Z,24.30
2023-01-13T03:12:21.788Z,28.77
2023-01-13T03:15:14.841Z,18.23
2023-01-13T03:18:09.072Z,25.90
2023-01-13T03:21:04.462Z,25.95
2023-01-13T03:23:59.645Z,26.25
2023-01-13T03:26:49.546Z,31.13
2023-01-13T03:29:40.655Z,27.40
2023-01-13T03:32:28.790Z,16.23
2023-01-13T03:35:18.960Z,24.17
2023-01-13T03:38:08.982Z,18.65
2023-01-13T03:40:59.995Z,24.20
2023-01-13T03:44:10.880Z,19.83
2023-01-13T03:47:02.995Z,22.23
2023-01-13T03:49:56.257Z,20.30
2023-01-13T03:52:45.746Z,15.05
2023-01-13T03:55:35.421Z,22.77
2023-01-13T03:58:26.058Z,21.20
2023-01-13T04:01:15.854Z,20.67
2023-01-13T04:04:06.142Z,18.98
2023-01-13T04:06:58.105Z,27.85
2023-01-13T04:09:50.831Z,31.42
2023-01-13T04:13:00.238Z,18.20
2023-01-13T04:15:48.917Z,19.42
2023-01-13T04:18:38.192Z,21.75
2023-01-13T04:21:23.793Z,14.45
2023-01-13T04:24:09.618Z,18.90
2023-01-13T04:26:56.461Z,22.35
2023-01-13T04:29:42.128Z,10.95
2023-01-13T04:32:29.213Z,12.60
2023-01-13T04:35:15.261Z,7.65
2023-01-13T04:38:01.904Z,8.20
2023-01-13T04:40:48.117Z,8.27
2023-01-13T04:43:34.072Z,10.25
2023-01-13T04:46:19.870Z,10.80
2023-01-13T04:49:06.874Z,7.68
2023-01-13T04:51:52.729Z,7.32
2023-01-13T04:54:38.035Z,7.35
2023-01-13T04:57:24.049Z,5.45
2023-01-13T05:00:11.711Z,5.95
2023-01-13T05:02:57.572Z,7.97
2023-01-13T05:05:45.003Z,11.48
2023-01-13T05:08:30.927Z,8.60
2023-01-13T05:11:35.351Z,8.55
2023-01-13T05:14:39.386Z,7.47
2023-01-13T05:17:25.393Z,9.55
2023-01-13T05:20:12.430Z,12.95
2023-01-13T05:23:17.955Z,7.53
2023-01-13T05:26:04.231Z,8.38
2023-01-13T05:28:50.037Z,12.25
2023-01-13T05:31:35.800Z,12.55
2023-01-13T05:34:21.477Z,10.35
2023-01-13T05:37:08.206Z,16.63
2023-01-13T05:40:14.226Z,10.25
2023-01-13T05:43:19.827Z,13.93
2023-01-13T05:46:08.288Z,13.57
2023-01-13T05:48:53.783Z,12.95
2023-01-13T05:51:39.444Z,15.88
2023-01-13T05:54:25.078Z,14.70
2023-01-13T05:57:12.034Z,10.90
2023-01-13T05:59:58.002Z,13.98
2023-01-13T06:02:43.536Z,9.25
2023-01-13T06:05:31.143Z,10.30
2023-01-13T06:08:18.871Z,15.02
2023-01-13T06:11:04.594Z,14.73
2023-01-13T06:13:51.784Z,12.23
2023-01-13T06:16:38.675Z,11.65
2023-01-13T06:19:24.284Z,22.88
2023-01-13T06:22:15.603Z,11.93
2023-01-13T06:25:02.041Z,13.20
2023-01-13T06:27:48.467Z,15.57
2023-01-13T06:30:41.119Z,16.80
2023-01-13T06:33:32.481Z,14.10
2023-01-13T06:36:22.329Z,22.55
2023-01-13T06:39:11.702Z,10.57
2023-01-13T06:42:17.260Z,14.40
2023-01-13T06:45:03.450Z,11.80
2023-01-13T06:47:50.568Z,11.32
2023-01-13T06:50:36.281Z,12.32
2023-01-13T06:53:22.216Z,20.23
2023-01-13T06:56:07.989Z,12.48
2023-01-13T06:58:53.421Z,15.15
2023-01-13T07:01:39.065Z,18.95
2023-01-13T07:04:28.440Z,15.80
2023-01-13T07:07:14.492Z,15.68
2023-01-13T07:10:00.495Z,10.32
2023-01-13T07:13:05.071Z,14.27
2023-01-13T07:15:55.992Z,14.90
2023-01-13T07:18:41.909Z,11.80
2023-01-13T07:21:29.248Z,12.73
2023-01-13T07:24:14.808Z,16.83
2023-01-13T07:27:00.279Z,16.60
2023-01-13T07:29:45.806Z,16.30
2023-01-13T07:32:32.919Z,18.92
2023-01-13T07:35:23.005Z,18.10
2023-01-13T07:38:09.952Z,13.90
2023-01-13T07:40:55.692Z,11.02
2023-01-13T07:43:41.407Z,14.30
2023-01-13T07:46:27.568Z,17.45
2023-01-13T07:49:13.561Z,13.65
2023-01-13T07:51:59.244Z,14.75
2023-01-13T07:54:46.574Z,19.30
2023-01-13T07:57:32.482Z,20.42
2023-01-13T08:00:19.297Z,19.67
2023-01-13T08:03:05.587Z,16.67
2023-01-13T08:05:51.362Z,17.38
2023-01-13T08:08:38.028Z,16.55
2023-01-13T08:11:25.208Z,19.48
2023-01-13T08:14:10.757Z,22.20
2023-01-13T08:16:56.454Z,19.65
2023-01-13T08:19:42.356Z,14.05
2023-01-13T08:22:30.965Z,15.18
2023-01-13T08:25:17.511Z,17.08
2023-01-13T08:28:04.982Z,18.92
2023-01-13T08:30:52.994Z,15.05
2023-01-13T08:33:38.906Z,17.23
2023-01-13T08:36:25.525Z,16.50
2023-01-13T08:39:11.433Z,15.30
2023-01-13T08:41:58.464Z,29.58
2023-01-13T08:44:45.853Z,25.52
2023-01-13T08:47:31.625Z,18.15
2023-01-13T08:50:18.317Z,17.63
2023-01-13T08:53:04.084Z,18.23
2023-01-13T08:55:49.499Z,18.40
2023-01-13T08:58:35.398Z,20.08
2023-01-13T09:01:23.321Z,13.10
2023-01-13T09:04:16.403Z,17.83
2023-01-13T09:07:02.893Z,13.93
2023-01-13T09:09:48.587Z,19.40
2023-01-13T09:12:52.672Z,21.88
2023-01-13T09:15:39.093Z,18.17
2023-01-13T09:18:26.436Z,22.08
2023-01-13T09:21:19.805Z,19.55
2023-01-13T09:24:06.258Z,18.27
2023-01-13T09:26:52.499Z,18.63
2023-01-13T09:29:38.271Z,22.17
2023-01-13T09:32:23.901Z,21.83
2023-01-13T09:35:11.368Z,21.58
2023-01-13T09:37:57.115Z,27.02
2023-01-13T09:40:43.913Z,26.52
2023-01-13T09:43:53.736Z,19.55
2023-01-13T09:46:47.975Z,17.70
2023-01-13T09:49:38.646Z,19.38
2023-01-13T09:52:28.218Z,16.63
2023-01-13T09:55:16.966Z,23.20
2023-01-13T09:58:12.515Z,23.88
2023-01-13T10:01:08.203Z,24.15
2023-01-13T10:03:54.511Z,21.10
2023-01-13T10:06:42.817Z,26.60
2023-01-13T10:09:34.269Z,21.45
2023-01-13T10:12:43.717Z,17.60
2023-01-13T10:15:29.540Z,20.05
2023-01-13T10:18:20.852Z,32.15
2023-01-13T10:21:20.499Z,17.00
2023-01-13T10:24:13.577Z,21.67
2023-01-13T10:27:04.669Z,22.20
2023-01-13T10:29:50.322Z,19.95
2023-01-13T10:32:36.245Z,22.52
2023-01-13T10:35:48.242Z,24.83
2023-01-13T10:38:38.813Z,18.63
2023-01-13T10:41:26.898Z,16.05
2023-01-13T10:44:17.000Z,23.63
2023-01-13T10:47:02.454Z,23.35
2023-01-13T10:50:01.053Z,15.10
2023-01-13T10:53:16.428Z,17.27
2023-01-13T10:56:04.386Z,15.65
2023-01-13T10:58:50.420Z,21.05
2023-01-13T11:01:37.765Z,18.48
2023-01-13T11:04:31.004Z,18.73
2023-01-13T11:07:22.774Z,18.20
2023-01-13T11:10:21.780Z,13.40
2023-01-13T11:13:13.515Z,20.90
2023-01-13T11:16:05.427Z,26.80
2023-01-13T11:19:13.574Z,13.18
2023-01-13T11:22:05.672Z,17.38
2023-01-13T11:24:55.290Z,22.45
2023-01-13T11:27:44.720Z,18.95
2023-01-13T11:30:36.824Z,16.88
2023-01-13T11:33:36.738Z,16.00
2023-01-13T11:36:28.990Z,19.13
2023-01-13T11:39:22.388Z,15.35
2023-01-13T11:42:21.205Z,21.50
2023-01-13T11:45:17.242Z,19.60
2023-01-13T11:48:04.102Z,14.45
2023-01-13T11:50:55.902Z,13.07
2023-01-13T11:53:57.479Z,18.25
2023-01-13T11:57:14.328Z,19.27
2023-01-13T12:00:36.534Z,18.88
2023-01-13T12:03:27.475Z,25.63
2023-01-13T12:06:21.213Z,19.50
2023-01-13T12:09:41.994Z,16.08
2023-01-13T12:12:43.032Z,9.53
2023-01-13T12:15:49.427Z,20.58
2023-01-13T12:18:47.869Z,15.65
2023-01-13T12:21:38.253Z,15.02
2023-01-13T12:24:30.032Z,14.13
2023-01-13T12:27:22.064Z,15.10
2023-01-13T12:30:22.260Z,13.95
2023-01-13T12:33:18.709Z,16.80
2023-01-13T12:36:11.795Z,13.30
2023-01-13T12:39:01.842Z,15.02
2023-01-13T12:42:12.783Z,15.05
2023-01-13T12:45:21.843Z,15.85
2023-01-13T12:48:27.359Z,22.52
2023-01-13T12:51:23.945Z,20.02
2023-01-13T12:54:33.602Z,18.63
2023-01-13T12:57:22.220Z,8.02
2023-01-13T13:00:16.945Z,21.20
2023-01-13T13:03:32.631Z,17.67
2023-01-13T13:06:21.924Z,18.80
2023-01-13T13:09:20.070Z,14.93
2023-01-13T13:12:51.074Z,10.90
2023-01-13T13:15:37.139Z,10.95
2023-01-13T13:18:28.623Z,15.07
2023-01-13T13:21:14.439Z,14.88
2023-01-13T13:24:11.048Z,15.70
2023-01-13T13:26:56.567Z,17.25
2023-01-13T13:29:53.186Z,10.57
2023-01-13T13:33:01.977Z,13.90
2023-01-13T13:36:06.207Z,11.98
2023-01-13T13:39:31.043Z,12.75
2023-01-13T13:42:39.858Z,14.07
2023-01-13T13:45:45.962Z,12.07
2023-01-13T13:48:31.604Z,9.45
2023-01-13T13:51:25.895Z,13.82
2023-01-13T13:54:14.475Z,10.50
2023-01-13T13:57:00.985Z,20.40
2023-01-13T13:59:53.616Z,14.50
2023-01-13T14:02:40.763Z,10.20
2023-01-13T14:05:28.826Z,16.30
2023-01-13T14:08:16.659Z,16.30
2023-01-13T14:11:16.434Z,15.60
2023-01-13T14:14:03.877Z,16.08
2023-01-13T14:16:51.766Z,17.08
2023-01-13T14:19:44.923Z,13.23
2023-01-13T14:22:31.396Z,17.00
2023-01-13T14:25:46.688Z,22.58
2023-01-13T14:28:35.884Z,17.05
2023-01-13T14:31:22.701Z,13.23
2023-01-13T14:34:32.289Z,18.35
2023-01-13T14:37:35.138Z,16.08
2023-01-13T14:40:45.441Z,9.43
2023-01-13T14:43:31.684Z,19.85
2023-01-13T14:46:17.920Z,14.63
2023-01-13T14:49:04.384Z,11.77
2023-01-13T14:51:51.823Z,11.43
2023-01-13T14:54:49.128Z,16.48
2023-01-13T14:57:35.877Z,16.00
2023-01-13T15:00:25.183Z,15.43
2023-01-13T15:03:15.728Z,10.88
2023-01-13T15:06:01.888Z,16.45
2023-01-13T15:08:50.154Z,15.90
2023-01-13T15:11:35.757Z,20.98
2023-01-13T15:14:26.483Z,12.60
2023-01-13T15:17:16.657Z,22.05
2023-01-13T15:20:03.420Z,13.73
2023-01-13T15:22:49.509Z,14.10
2023-01-13T15:25:39.094Z,12.95
2023-01-13T15:28:25.591Z,11.73
2023-01-13T15:31:11.622Z,9.80
2023-01-13T15:33:58.905Z,12.27
2023-01-13T15:36:44.805Z,12.98
2023-01-13T15:39:30.502Z,14.32
2023-01-13T15:42:36.208Z,11.52
2023-01-13T15:45:40.661Z,11.07
2023-01-13T15:48:29.505Z,13.77
2023-01-13T15:51:15.512Z,12.32
2023-01-13T15:54:02.475Z,11.27
2023-01-13T15:56:48.394Z,13.85
2023-01-13T15:59:35.203Z,17.08
2023-01-13T16:02:22.682Z,13.95
2023-01-13T16:05:08.730Z,8.63
2023-01-13T16:07:54.631Z,17.23
2023-01-13T16:10:43.046Z,15.77
2023-01-13T16:13:28.915Z,15.27
2023-01-13T16:16:22.660Z,8.48
2023-01-13T16:19:11.388Z,15.82
2023-01-13T16:21:59.772Z,14.55
2023-01-13T16:24:46.049Z,13.48
2023-01-13T16:27:31.925Z,10.95
2023-01-13T16:30:29.129Z,11.93
2023-01-13T16:33:16.408Z,13.82
2023-01-13T16:36:10.586Z,11.82
2023-01-13T16:38:58.107Z,9.18
2023-01-13T16:41:43.967Z,15.43
2023-01-13T16:44:29.680Z,12.90
2023-01-13T16:47:17.246Z,21.08
2023-01-13T16:50:06.068Z,17.25
2023-01-13T16:52:51.745Z,13.65
2023-01-13T16:55:37.841Z,10.38
2023-01-13T16:58:23.856Z,16.20
2023-01-13T17:01:17.385Z,11.65
2023-01-13T17:04:03.525Z,13.80
2023-01-13T17:06:56.887Z,19.58
2023-01-13T17:09:54.182Z,12.48
2023-01-13T17:12:39.987Z,14.38
2023-01-13T17:15:26.185Z,12.90
2023-01-13T17:18:13.463Z,13.48
2023-01-13T17:26:37.183Z,17.35
2023-01-13T17:29:25.894Z,9.15
2023-01-13T17:35:02.536Z,14.10
2023-01-13T17:37:48.683Z,17.47
2023-01-13T17:43:21.747Z,11.85
2023-01-13T17:46:08.970Z,10.95
2023-01-13T17:48:55.025Z,10.25
2023-01-13T17:51:40.862Z,14.50
2023-01-13T17:54:26.562Z,8.05
2023-01-13T17:57:13.809Z,6.95
2023-01-13T17:59:59.757Z,8.65
2023-01-13T18:02:45.354Z,2.85
2023-01-13T18:05:34.071Z,2.67
2023-01-13T18:08:21.610Z,2.80
2023-01-13T18:11:07.387Z,3.70
2023-01-13T18:13:56.989Z,8.25
2023-01-13T18:16:43.320Z,5.40
2023-01-13T18:19:47.803Z,7.50
2023-01-13T18:22:51.922Z,12.05
2023-01-13T18:25:58.064Z,12.32
2023-01-13T18:31:31.921Z,10.70
2023-01-13T19:42:42.788Z,4.65
2023-01-13T20:00:05.865Z,11.80
2023-01-13T20:03:03.240Z,9.35
2023-01-13T20:25:16.789Z,9.05
2023-01-13T20:28:02.569Z,10.32
2023-01-13T20:30:49.240Z,16.25
2023-01-13T20:33:35.228Z,8.75
2023-01-13T20:36:27.322Z,19.52
2023-01-13T20:39:15.929Z,8.93
2023-01-13T20:42:21.918Z,11.18
2023-01-13T20:45:08.444Z,13.95
2023-01-13T20:47:54.596Z,11.38
2023-01-13T20:50:40.360Z,12.50
2023-01-13T20:53:27.885Z,12.50
2023-01-13T20:56:14.604Z,11.43
2023-01-13T20:59:02.352Z,16.60
2023-01-13T21:01:48.455Z,10.23
2023-01-13T21:04:34.292Z,14.68
2023-01-13T21:07:19.824Z,14.23
2023-01-13T21:10:06.309Z,12.35
2023-01-13T21:13:10.921Z,16.67
2023-01-13T21:15:58.502Z,16.27
2023-01-13T21:19:02.697Z,13.88
2023-01-13T21:21:48.329Z,11.32
2023-01-13T21:24:33.794Z,10.32
2023-01-13T21:27:19.979Z,15.82
2023-01-13T21:30:06.835Z,16.92
2023-01-13T21:32:53.879Z,9.15
2023-01-13T21:35:39.563Z,9.68
2023-01-13T21:38:26.739Z,11.52
2023-01-13T21:41:14.431Z,12.20
2023-01-13T21:44:18.463Z,10.00
2023-01-13T21:47:23.681Z,12.63
2023-01-13T21:50:12.176Z,14.75
2023-01-13T21:52:58.740Z,12.43
2023-01-13T21:55:44.724Z,15.35
2023-01-13T21:58:30.766Z,15.85
2023-01-13T22:01:16.640Z,12.20
2023-01-13T22:04:14.643Z,18.52
2023-01-13T22:07:04.840Z,11.37
2023-01-13T22:09:50.648Z,25.45
2023-01-13T22:12:37.213Z,15.77
2023-01-13T22:26:31.780Z,9.68
2023-01-13T22:29:18.241Z,15.47
2023-01-13T22:32:04.710Z,12.25
2023-01-13T22:34:50.810Z,10.27
2023-01-13T22:37:37.549Z,7.75
2023-01-13T22:40:23.988Z,9.10
2023-01-13T22:43:12.811Z,9.05
2023-01-13T22:45:59.499Z,14.65
2023-01-13T22:48:46.090Z,10.02
2023-01-13T22:51:31.692Z,7.85
2023-01-13T22:54:18.465Z,9.57
2023-01-13T22:57:04.674Z,11.32
2023-01-13T22:59:51.757Z,15.43
2023-01-13T23:02:38.050Z,13.30
2023-01-13T23:05:23.748Z,12.60
2023-01-13T23:08:10.821Z,13.57
2023-01-13T23:11:01.007Z,10.27
2023-01-13T23:13:47.126Z,12.00
2023-01-13T23:16:36.810Z,12.52
2023-01-13T23:19:22.745Z,8.27
2023-01-13T23:22:08.241Z,12.00
2023-01-13T23:24:53.733Z,12.60
2023-01-13T23:27:39.407Z,12.40
2023-01-13T23:30:24.969Z,11.35
2023-01-13T23:33:12.255Z,14.65
2023-01-13T23:36:00.300Z,11.60
